sensor_id;sensor_type;location;lat;lon;timestamp;temperature;humidity
24158;DHT22;12316;50.904;4.200;2023-06-05T00:01:37;15.50;99.90
24158;DHT22;12316;50.904;4.200;2023-06-05T00:04:02;15.50;99.90
24158;DHT22;12316;50.904;4.200;2023-06-05T00:06:29;15.50;99.90
24158;DHT22;12316;50.904;4.200;2023-06-05T00:08:56;15.50;99.90
24158;DHT22;12316;50.904;4.200;2023-06-05T00:11:22;15.40;99.90
24158;DHT22;12316;50.904;4.200;2023-06-05T00:13:48;15.40;99.90
24158;DHT22;12316;50.904;4.200;2023-06-05T00:16:15;15.40;99.90
24158;DHT22;12316;50.904;4.200;2023-06-05T00:18:41;15.20;99.90
24158;DHT22;12316;50.904;4.200;2023-06-05T00:21:08;15.30;99.90
24158;DHT22;12316;50.904;4.200;2023-06-05T00:23:33;15.30;99.90
24158;DHT22;12316;50.904;4.200;2023-06-05T00:25:59;15.10;99.90
24158;DHT22;12316;50.904;4.200;2023-06-05T00:28:25;15.30;99.90
24158;DHT22;12316;50.904;4.200;2023-06-05T00:30:51;15.10;99.90
24158;DHT22;12316;50.904;4.200;2023-06-05T00:33:17;15.10;99.90
24158;DHT22;12316;50.904;4.200;2023-06-05T00:35:42;15.00;99.90
24158;DHT22;12316;50.904;4.200;2023-06-05T00:38:09;15.00;99.90
24158;DHT22;12316;50.904;4.200;2023-06-05T00:40:36;15.00;99.90
24158;DHT22;12316;50.904;4.200;2023-06-05T00:43:02;14.90;99.90
24158;DHT22;12316;50.904;4.200;2023-06-05T00:45:27;14.80;99.90
24158;DHT22;12316;50.904;4.200;2023-06-05T00:47:53;14.80;99.90
24158;DHT22;12316;50.904;4.200;2023-06-05T00:50:19;14.90;99.90
24158;DHT22;12316;50.904;4.200;2023-06-05T00:52:49;14.80;99.90
24158;DHT22;12316;50.904;4.200;2023-06-05T00:55:15;14.70;99.90
24158;DHT22;12316;50.904;4.200;2023-06-05T00:57:42;14.70;99.90
24158;DHT22;12316;50.904;4.200;2023-06-05T01:00:10;14.70;99.90
24158;DHT22;12316;50.904;4.200;2023-06-05T01:02:38;14.60;99.90
24158;DHT22;12316;50.904;4.200;2023-06-05T01:05:05;14.50;99.90
24158;DHT22;12316;50.904;4.200;2023-06-05T01:07:35;14.50;99.90
24158;DHT22;12316;50.904;4.200;2023-06-05T01:10:06;14.50;99.90
24158;DHT22;12316;50.904;4.200;2023-06-05T01:15:24;14.50;99.90
24158;DHT22;12316;50.904;4.200;2023-06-05T01:17:58;14.40;99.90
24158;DHT22;12316;50.904;4.200;2023-06-05T01:20:34;14.40;99.90
24158;DHT22;12316;50.904;4.200;2023-06-05T01:23:04;14.30;99.90
24158;DHT22;12316;50.904;4.200;2023-06-05T01:25:30;14.20;99.90
24158;DHT22;12316;50.904;4.200;2023-06-05T01:28:16;14.20;99.90
24158;DHT22;12316;50.904;4.200;2023-06-05T01:33:33;14.20;99.90
24158;DHT22;12316;50.904;4.200;2023-06-05T01:36:08;14.20;99.90
24158;DHT22;12316;50.904;4.200;2023-06-05T01:38:35;14.20;99.90
24158;DHT22;12316;50.904;4.200;2023-06-05T01:41:03;14.10;99.90
24158;DHT22;12316;50.904;4.200;2023-06-05T01:43:30;14.10;99.90
24158;DHT22;12316;50.904;4.200;2023-06-05T01:45:56;14.00;99.90
24158;DHT22;12316;50.904;4.200;2023-06-05T01:48:25;14.10;99.90
24158;DHT22;12316;50.904;4.200;2023-06-05T01:51:00;14.10;99.90
24158;DHT22;12316;50.904;4.200;2023-06-05T01:53:26;14.00;99.90
24158;DHT22;12316;50.904;4.200;2023-06-05T01:55:53;13.90;99.90
24158;DHT22;12316;50.904;4.200;2023-06-05T01:58:25;13.80;99.90
24158;DHT22;12316;50.904;4.200;2023-06-05T02:00:52;13.80;99.90
24158;DHT22;12316;50.904;4.200;2023-06-05T02:03:23;13.80;99.90
24158;DHT22;12316;50.904;4.200;2023-06-05T02:05:49;13.70;99.90
24158;DHT22;12316;50.904;4.200;2023-06-05T02:08:17;13.70;99.90
24158;DHT22;12316;50.904;4.200;2023-06-05T02:10:47;13.60;99.90
24158;DHT22;12316;50.904;4.200;2023-06-05T02:13:13;13.70;99.90
24158;DHT22;12316;50.904;4.200;2023-06-05T02:15:41;13.60;99.90
24158;DHT22;12316;50.904;4.200;2023-06-05T02:18:07;13.60;99.90
24158;DHT22;12316;50.904;4.200;2023-06-05T02:20:33;13.60;99.90
24158;DHT22;12316;50.904;4.200;2023-06-05T02:23:00;13.60;99.90
24158;DHT22;12316;50.904;4.200;2023-06-05T02:25:26;13.50;99.90
24158;DHT22;12316;50.904;4.200;2023-06-05T02:27:53;13.50;99.90
24158;DHT22;12316;50.904;4.200;2023-06-05T02:30:19;13.50;99.90
24158;DHT22;12316;50.904;4.200;2023-06-05T02:32:45;13.50;99.90
24158;DHT22;12316;50.904;4.200;2023-06-05T02:35:12;13.40;99.90
24158;DHT22;12316;50.904;4.200;2023-06-05T02:37:39;13.40;99.90
24158;DHT22;12316;50.904;4.200;2023-06-05T02:40:13;13.50;99.90
24158;DHT22;12316;50.904;4.200;2023-06-05T02:42:39;13.50;99.90
24158;DHT22;12316;50.904;4.200;2023-06-05T02:45:06;13.50;99.90
24158;DHT22;12316;50.904;4.200;2023-06-05T02:47:33;13.50;99.90
24158;DHT22;12316;50.904;4.200;2023-06-05T02:49:59;13.40;99.90
24158;DHT22;12316;50.904;4.200;2023-06-05T02:52:25;13.50;99.90
24158;DHT22;12316;50.904;4.200;2023-06-05T02:54:51;13.60;99.90
24158;DHT22;12316;50.904;4.200;2023-06-05T02:57:17;13.60;99.90
24158;DHT22;12316;50.904;4.200;2023-06-05T02:59:43;13.60;99.90
24158;DHT22;12316;50.904;4.200;2023-06-05T03:02:10;13.60;99.90
24158;DHT22;12316;50.904;4.200;2023-06-05T03:04:37;13.60;99.90
24158;DHT22;12316;50.904;4.200;2023-06-05T03:07:04;13.50;99.90
24158;DHT22;12316;50.904;4.200;2023-06-05T03:09:30;13.40;99.90
24158;DHT22;12316;50.904;4.200;2023-06-05T03:11:57;13.40;99.90
24158;DHT22;12316;50.904;4.200;2023-06-05T03:14:23;13.50;99.90
24158;DHT22;12316;50.904;4.200;2023-06-05T03:16:48;13.40;99.90
24158;DHT22;12316;50.904;4.200;2023-06-05T03:19:14;13.50;99.90
24158;DHT22;12316;50.904;4.200;2023-06-05T03:21:40;13.40;99.90
24158;DHT22;12316;50.904;4.200;2023-06-05T03:24:11;13.40;99.90
24158;DHT22;12316;50.904;4.200;2023-06-05T03:26:41;13.30;99.90
24158;DHT22;12316;50.904;4.200;2023-06-05T03:29:08;13.30;99.90
24158;DHT22;12316;50.904;4.200;2023-06-05T03:31:34;13.20;99.90
24158;DHT22;12316;50.904;4.200;2023-06-05T03:34:01;13.30;99.90
24158;DHT22;12316;50.904;4.200;2023-06-05T03:36:28;13.30;99.90
24158;DHT22;12316;50.904;4.200;2023-06-05T03:38:55;13.20;99.90
24158;DHT22;12316;50.904;4.200;2023-06-05T03:41:23;13.30;99.90
24158;DHT22;12316;50.904;4.200;2023-06-05T03:43:49;13.20;99.90
24158;DHT22;12316;50.904;4.200;2023-06-05T03:46:17;13.10;99.90
24158;DHT22;12316;50.904;4.200;2023-06-05T03:48:46;13.20;99.90
24158;DHT22;12316;50.904;4.200;2023-06-05T03:51:12;13.20;99.90
24158;DHT22;12316;50.904;4.200;2023-06-05T03:53:39;13.30;99.90
24158;DHT22;12316;50.904;4.200;2023-06-05T03:56:08;13.20;99.90
24158;DHT22;12316;50.904;4.200;2023-06-05T03:58:34;13.20;99.90
24158;DHT22;12316;50.904;4.200;2023-06-05T04:01:00;13.00;99.90
24158;DHT22;12316;50.904;4.200;2023-06-05T04:03:26;13.10;99.90
24158;DHT22;12316;50.904;4.200;2023-06-05T04:05:53;13.10;99.90
24158;DHT22;12316;50.904;4.200;2023-06-05T04:08:18;13.00;99.90
24158;DHT22;12316;50.904;4.200;2023-06-05T04:10:44;13.10;99.90
24158;DHT22;12316;50.904;4.200;2023-06-05T04:13:10;13.00;99.90
24158;DHT22;12316;50.904;4.200;2023-06-05T04:15:36;13.10;99.90
24158;DHT22;12316;50.904;4.200;2023-06-05T04:18:02;13.10;99.90
24158;DHT22;12316;50.904;4.200;2023-06-05T04:20:28;13.20;99.90
24158;DHT22;12316;50.904;4.200;2023-06-05T04:22:53;13.10;99.90
24158;DHT22;12316;50.904;4.200;2023-06-05T04:25:19;13.10;99.90
24158;DHT22;12316;50.904;4.200;2023-06-05T04:27:47;13.20;99.90
24158;DHT22;12316;50.904;4.200;2023-06-05T04:30:15;13.40;99.90
24158;DHT22;12316;50.904;4.200;2023-06-05T04:32:41;13.60;99.90
24158;DHT22;12316;50.904;4.200;2023-06-05T04:35:08;13.80;99.90
24158;DHT22;12316;50.904;4.200;2023-06-05T04:37:35;14.00;99.90
24158;DHT22;12316;50.904;4.200;2023-06-05T04:40:01;14.20;99.90
24158;DHT22;12316;50.904;4.200;2023-06-05T04:42:36;14.50;99.90
24158;DHT22;12316;50.904;4.200;2023-06-05T04:45:06;14.60;99.90
24158;DHT22;12316;50.904;4.200;2023-06-05T04:47:33;14.80;99.90
24158;DHT22;12316;50.904;4.200;2023-06-05T04:50:01;15.00;99.90
24158;DHT22;12316;50.904;4.200;2023-06-05T04:52:31;15.10;99.90
24158;DHT22;12316;50.904;4.200;2023-06-05T04:54:56;15.30;99.90
24158;DHT22;12316;50.904;4.200;2023-06-05T04:57:24;15.50;99.90
24158;DHT22;12316;50.904;4.200;2023-06-05T04:59:51;15.80;99.90
24158;DHT22;12316;50.904;4.200;2023-06-05T05:02:17;15.90;99.90
24158;DHT22;12316;50.904;4.200;2023-06-05T05:04:43;16.00;99.90
24158;DHT22;12316;50.904;4.200;2023-06-05T05:07:09;16.20;99.90
24158;DHT22;12316;50.904;4.200;2023-06-05T05:09:40;16.40;99.90
24158;DHT22;12316;50.904;4.200;2023-06-05T05:12:06;16.60;99.90
24158;DHT22;12316;50.904;4.200;2023-06-05T05:14:32;16.70;99.90
24158;DHT22;12316;50.904;4.200;2023-06-05T05:16:59;16.70;99.90
24158;DHT22;12316;50.904;4.200;2023-06-05T05:19:26;16.80;99.90
24158;DHT22;12316;50.904;4.200;2023-06-05T05:21:52;16.80;99.90
24158;DHT22;12316;50.904;4.200;2023-06-05T05:24:18;16.60;99.90
24158;DHT22;12316;50.904;4.200;2023-06-05T05:26:45;16.70;99.90
24158;DHT22;12316;50.904;4.200;2023-06-05T05:29:11;16.80;99.90
24158;DHT22;12316;50.904;4.200;2023-06-05T05:31:37;16.80;99.90
24158;DHT22;12316;50.904;4.200;2023-06-05T05:34:02;16.90;99.90
24158;DHT22;12316;50.904;4.200;2023-06-05T05:36:28;16.80;99.90
24158;DHT22;12316;50.904;4.200;2023-06-05T05:38:54;17.00;99.90
24158;DHT22;12316;50.904;4.200;2023-06-05T05:41:20;17.10;99.90
24158;DHT22;12316;50.904;4.200;2023-06-05T05:43:46;17.40;99.90
24158;DHT22;12316;50.904;4.200;2023-06-05T05:46:12;17.50;99.90
24158;DHT22;12316;50.904;4.200;2023-06-05T05:48:37;17.60;99.90
24158;DHT22;12316;50.904;4.200;2023-06-05T05:51:05;17.40;99.90
24158;DHT22;12316;50.904;4.200;2023-06-05T05:53:31;17.30;99.90
24158;DHT22;12316;50.904;4.200;2023-06-05T05:55:57;17.20;99.90
24158;DHT22;12316;50.904;4.200;2023-06-05T05:58:22;17.40;99.90
24158;DHT22;12316;50.904;4.200;2023-06-05T06:00:48;17.50;99.90
24158;DHT22;12316;50.904;4.200;2023-06-05T06:03:14;17.70;99.90
24158;DHT22;12316;50.904;4.200;2023-06-05T06:05:40;17.70;99.90
24158;DHT22;12316;50.904;4.200;2023-06-05T06:08:06;17.80;99.90
24158;DHT22;12316;50.904;4.200;2023-06-05T06:10:32;17.80;99.90
24158;DHT22;12316;50.904;4.200;2023-06-05T06:12:58;17.70;99.90
24158;DHT22;12316;50.904;4.200;2023-06-05T06:15:24;17.80;99.90
24158;DHT22;12316;50.904;4.200;2023-06-05T06:17:49;17.90;99.90
24158;DHT22;12316;50.904;4.200;2023-06-05T06:20:15;17.80;99.90
24158;DHT22;12316;50.904;4.200;2023-06-05T06:22:42;17.60;99.90
24158;DHT22;12316;50.904;4.200;2023-06-05T06:25:12;17.50;99.90
24158;DHT22;12316;50.904;4.200;2023-06-05T06:27:40;17.60;99.90
24158;DHT22;12316;50.904;4.200;2023-06-05T06:30:06;18.00;99.90
24158;DHT22;12316;50.904;4.200;2023-06-05T06:32:32;18.20;99.90
24158;DHT22;12316;50.904;4.200;2023-06-05T06:34:58;18.30;99.90
24158;DHT22;12316;50.904;4.200;2023-06-05T06:37:25;18.30;99.90
24158;DHT22;12316;50.904;4.200;2023-06-05T06:39:50;18.40;99.90
24158;DHT22;12316;50.904;4.200;2023-06-05T06:42:16;18.40;99.90
24158;DHT22;12316;50.904;4.200;2023-06-05T06:44:42;18.40;99.90
24158;DHT22;12316;50.904;4.200;2023-06-05T06:47:08;18.20;99.90
24158;DHT22;12316;50.904;4.200;2023-06-05T06:49:34;18.00;99.90
24158;DHT22;12316;50.904;4.200;2023-06-05T06:52:05;17.80;99.90
24158;DHT22;12316;50.904;4.200;2023-06-05T06:54:31;17.30;99.90
24158;DHT22;12316;50.904;4.200;2023-06-05T06:56:57;17.20;99.90
24158;DHT22;12316;50.904;4.200;2023-06-05T06:59:23;17.10;99.90
24158;DHT22;12316;50.904;4.200;2023-06-05T07:02:08;17.20;99.90
24158;DHT22;12316;50.904;4.200;2023-06-05T07:04:35;17.20;99.90
24158;DHT22;12316;50.904;4.200;2023-06-05T07:07:00;17.20;99.90
24158;DHT22;12316;50.904;4.200;2023-06-05T07:09:26;17.10;99.90
24158;DHT22;12316;50.904;4.200;2023-06-05T07:11:54;16.90;99.90
24158;DHT22;12316;50.904;4.200;2023-06-05T07:14:20;16.80;99.90
24158;DHT22;12316;50.904;4.200;2023-06-05T07:16:46;16.70;99.90
24158;DHT22;12316;50.904;4.200;2023-06-05T07:19:13;16.80;99.90
24158;DHT22;12316;50.904;4.200;2023-06-05T07:21:39;16.80;99.90
24158;DHT22;12316;50.904;4.200;2023-06-05T07:24:05;16.60;99.90
24158;DHT22;12316;50.904;4.200;2023-06-05T07:26:31;16.70;99.90
24158;DHT22;12316;50.904;4.200;2023-06-05T07:28:57;16.80;99.90
24158;DHT22;12316;50.904;4.200;2023-06-05T07:31:23;16.80;99.90
24158;DHT22;12316;50.904;4.200;2023-06-05T07:33:48;16.80;99.90
24158;DHT22;12316;50.904;4.200;2023-06-05T07:36:14;16.70;99.90
24158;DHT22;12316;50.904;4.200;2023-06-05T07:38:40;16.80;99.90
24158;DHT22;12316;50.904;4.200;2023-06-05T07:41:08;16.80;99.90
24158;DHT22;12316;50.904;4.200;2023-06-05T07:43:37;17.00;99.90
24158;DHT22;12316;50.904;4.200;2023-06-05T07:46:05;17.10;99.90
24158;DHT22;12316;50.904;4.200;2023-06-05T07:48:31;17.30;99.90
24158;DHT22;12316;50.904;4.200;2023-06-05T07:50:56;17.40;99.90
24158;DHT22;12316;50.904;4.200;2023-06-05T07:53:22;17.40;99.90
24158;DHT22;12316;50.904;4.200;2023-06-05T07:55:48;17.50;99.90
24158;DHT22;12316;50.904;4.200;2023-06-05T07:58:14;17.40;99.90
24158;DHT22;12316;50.904;4.200;2023-06-05T08:00:41;17.40;99.90
24158;DHT22;12316;50.904;4.200;2023-06-05T08:03:14;17.40;99.90
24158;DHT22;12316;50.904;4.200;2023-06-05T08:05:54;17.50;99.90
24158;DHT22;12316;50.904;4.200;2023-06-05T08:08:19;17.40;99.90
24158;DHT22;12316;50.904;4.200;2023-06-05T08:10:45;17.50;99.90
24158;DHT22;12316;50.904;4.200;2023-06-05T08:13:11;17.60;99.90
24158;DHT22;12316;50.904;4.200;2023-06-05T08:15:37;17.90;99.90
24158;DHT22;12316;50.904;4.200;2023-06-05T08:18:03;18.00;99.90
24158;DHT22;12316;50.904;4.200;2023-06-05T08:20:28;18.00;99.90
24158;DHT22;12316;50.904;4.200;2023-06-05T08:22:57;17.80;99.90
24158;DHT22;12316;50.904;4.200;2023-06-05T08:25:24;17.90;99.90
24158;DHT22;12316;50.904;4.200;2023-06-05T08:27:50;18.00;99.90
24158;DHT22;12316;50.904;4.200;2023-06-05T08:30:16;18.10;99.90
24158;DHT22;12316;50.904;4.200;2023-06-05T08:32:42;18.10;99.90
24158;DHT22;12316;50.904;4.200;2023-06-05T08:35:09;18.10;99.90
24158;DHT22;12316;50.904;4.200;2023-06-05T08:37:35;18.10;99.90
24158;DHT22;12316;50.904;4.200;2023-06-05T08:40:01;18.30;99.90
24158;DHT22;12316;50.904;4.200;2023-06-05T08:42:33;18.30;99.90
24158;DHT22;12316;50.904;4.200;2023-06-05T08:44:59;18.40;99.90
24158;DHT22;12316;50.904;4.200;2023-06-05T08:47:28;18.50;99.90
24158;DHT22;12316;50.904;4.200;2023-06-05T08:49:56;18.50;99.90
24158;DHT22;12316;50.904;4.200;2023-06-05T08:52:22;18.50;99.90
24158;DHT22;12316;50.904;4.200;2023-06-05T08:54:50;18.70;99.90
24158;DHT22;12316;50.904;4.200;2023-06-05T08:57:16;18.80;99.90
24158;DHT22;12316;50.904;4.200;2023-06-05T08:59:42;19.00;99.90
24158;DHT22;12316;50.904;4.200;2023-06-05T09:02:09;19.10;99.90
24158;DHT22;12316;50.904;4.200;2023-06-05T09:04:35;19.20;99.90
24158;DHT22;12316;50.904;4.200;2023-06-05T09:07:01;19.30;99.90
24158;DHT22;12316;50.904;4.200;2023-06-05T09:09:27;19.50;99.90
24158;DHT22;12316;50.904;4.200;2023-06-05T09:12:03;19.40;99.90
24158;DHT22;12316;50.904;4.200;2023-06-05T09:14:29;19.30;99.90
24158;DHT22;12316;50.904;4.200;2023-06-05T09:16:59;19.30;99.90
24158;DHT22;12316;50.904;4.200;2023-06-05T09:19:38;19.30;99.90
24158;DHT22;12316;50.904;4.200;2023-06-05T09:22:06;19.50;99.90
24158;DHT22;12316;50.904;4.200;2023-06-05T09:24:32;19.60;99.90
24158;DHT22;12316;50.904;4.200;2023-06-05T09:26:59;19.80;99.90
24158;DHT22;12316;50.904;4.200;2023-06-05T09:31:53;20.00;99.90
24158;DHT22;12316;50.904;4.200;2023-06-05T09:34:39;20.10;99.90
24158;DHT22;12316;50.904;4.200;2023-06-05T09:37:07;20.20;99.90
24158;DHT22;12316;50.904;4.200;2023-06-05T09:39:34;20.20;99.90
24158;DHT22;12316;50.904;4.200;2023-06-05T09:42:00;20.30;99.90
24158;DHT22;12316;50.904;4.200;2023-06-05T09:44:28;20.40;99.90
24158;DHT22;12316;50.904;4.200;2023-06-05T09:47:01;20.50;99.90
24158;DHT22;12316;50.904;4.200;2023-06-05T09:49:32;20.60;99.90
24158;DHT22;12316;50.904;4.200;2023-06-05T09:51:59;20.50;99.90
24158;DHT22;12316;50.904;4.200;2023-06-05T09:54:26;20.60;99.90
24158;DHT22;12316;50.904;4.200;2023-06-05T09:57:00;20.70;99.90
24158;DHT22;12316;50.904;4.200;2023-06-05T09:59:31;20.80;99.90
24158;DHT22;12316;50.904;4.200;2023-06-05T10:02:01;20.80;99.60
24158;DHT22;12316;50.904;4.200;2023-06-05T10:04:42;20.60;99.80
24158;DHT22;12316;50.904;4.200;2023-06-05T10:07:11;20.70;99.90
24158;DHT22;12316;50.904;4.200;2023-06-05T10:09:37;20.60;99.90
24158;DHT22;12316;50.904;4.200;2023-06-05T10:12:03;20.70;99.70
24158;DHT22;12316;50.904;4.200;2023-06-05T10:14:29;20.80;99.90
24158;DHT22;12316;50.904;4.200;2023-06-05T10:16:55;20.90;99.90
24158;DHT22;12316;50.904;4.200;2023-06-05T10:19:22;21.10;99.20
24158;DHT22;12316;50.904;4.200;2023-06-05T10:21:50;21.30;99.70
24158;DHT22;12316;50.904;4.200;2023-06-05T10:24:34;21.40;99.60
24158;DHT22;12316;50.904;4.200;2023-06-05T10:27:08;21.50;98.90
24158;DHT22;12316;50.904;4.200;2023-06-05T10:38:30;21.80;98.30
24158;DHT22;12316;50.904;4.200;2023-06-05T10:40:58;21.80;98.20
24158;DHT22;12316;50.904;4.200;2023-06-05T10:43:31;21.90;98.70
24158;DHT22;12316;50.904;4.200;2023-06-05T10:45:59;21.90;98.60
24158;DHT22;12316;50.904;4.200;2023-06-05T10:54:03;22.10;97.80
24158;DHT22;12316;50.904;4.200;2023-06-05T10:59:36;22.00;97.80
24158;DHT22;12316;50.904;4.200;2023-06-05T11:05:02;22.10;97.70
24158;DHT22;12316;50.904;4.200;2023-06-05T11:07:30;22.30;97.80
24158;DHT22;12316;50.904;4.200;2023-06-05T11:10:05;22.50;95.50
24158;DHT22;12316;50.904;4.200;2023-06-05T11:15:07;22.60;95.20
24158;DHT22;12316;50.904;4.200;2023-06-05T11:17:34;22.90;95.60
24158;DHT22;12316;50.904;4.200;2023-06-05T11:27:47;22.80;95.10
24158;DHT22;12316;50.904;4.200;2023-06-05T11:30:18;23.00;94.90
24158;DHT22;12316;50.904;4.200;2023-06-05T11:32:44;23.10;94.50
24158;DHT22;12316;50.904;4.200;2023-06-05T11:35:10;23.10;94.50
24158;DHT22;12316;50.904;4.200;2023-06-05T11:37:37;23.10;93.90
24158;DHT22;12316;50.904;4.200;2023-06-05T11:40:04;23.20;94.30
24158;DHT22;12316;50.904;4.200;2023-06-05T11:42:37;23.40;94.60
24158;DHT22;12316;50.904;4.200;2023-06-05T11:45:15;23.60;93.60
24158;DHT22;12316;50.904;4.200;2023-06-05T11:47:41;23.70;92.80
24158;DHT22;12316;50.904;4.200;2023-06-05T11:50:10;23.70;92.50
24158;DHT22;12316;50.904;4.200;2023-06-05T11:52:37;23.60;92.60
24158;DHT22;12316;50.904;4.200;2023-06-05T11:57:42;23.60;92.60
24158;DHT22;12316;50.904;4.200;2023-06-05T12:00:09;23.60;92.60
24158;DHT22;12316;50.904;4.200;2023-06-05T12:02:38;23.60;92.20
24158;DHT22;12316;50.904;4.200;2023-06-05T12:05:09;23.60;92.90
24158;DHT22;12316;50.904;4.200;2023-06-05T12:07:34;23.70;92.20
24158;DHT22;12316;50.904;4.200;2023-06-05T12:10:06;23.60;92.10
24158;DHT22;12316;50.904;4.200;2023-06-05T12:13:14;23.60;92.20
24158;DHT22;12316;50.904;4.200;2023-06-05T12:15:21;23.60;92.90
24158;DHT22;12316;50.904;4.200;2023-06-05T12:17:51;23.80;91.60
24158;DHT22;12316;50.904;4.200;2023-06-05T12:20:18;23.80;91.00
24158;DHT22;12316;50.904;4.200;2023-06-05T12:22:45;23.80;91.00
24158;DHT22;12316;50.904;4.200;2023-06-05T12:25:21;23.90;91.90
24158;DHT22;12316;50.904;4.200;2023-06-05T12:27:50;23.90;91.20
24158;DHT22;12316;50.904;4.200;2023-06-05T12:30:16;23.90;91.10
24158;DHT22;12316;50.904;4.200;2023-06-05T12:32:43;23.70;91.40
24158;DHT22;12316;50.904;4.200;2023-06-05T12:35:22;23.70;91.40
24158;DHT22;12316;50.904;4.200;2023-06-05T12:37:49;24.00;91.20
24158;DHT22;12316;50.904;4.200;2023-06-05T12:40:16;23.90;90.60
24158;DHT22;12316;50.904;4.200;2023-06-05T12:42:47;24.00;91.50
24158;DHT22;12316;50.904;4.200;2023-06-05T12:45:13;24.10;90.60
24158;DHT22;12316;50.904;4.200;2023-06-05T12:47:39;24.10;91.80
24158;DHT22;12316;50.904;4.200;2023-06-05T12:50:07;24.20;92.10
24158;DHT22;12316;50.904;4.200;2023-06-05T12:52:34;24.40;92.50
24158;DHT22;12316;50.904;4.200;2023-06-05T12:55:00;24.50;90.40
24158;DHT22;12316;50.904;4.200;2023-06-05T12:57:26;24.50;90.30
24158;DHT22;12316;50.904;4.200;2023-06-05T12:59:53;24.40;91.00
24158;DHT22;12316;50.904;4.200;2023-06-05T13:02:20;24.30;90.90
24158;DHT22;12316;50.904;4.200;2023-06-05T13:04:46;24.30;91.00
24158;DHT22;12316;50.904;4.200;2023-06-05T13:07:12;24.30;90.00
24158;DHT22;12316;50.904;4.200;2023-06-05T13:09:38;24.30;90.60
24158;DHT22;12316;50.904;4.200;2023-06-05T13:12:04;24.40;87.50
24158;DHT22;12316;50.904;4.200;2023-06-05T13:14:30;24.50;86.90
24158;DHT22;12316;50.904;4.200;2023-06-05T13:16:57;24.70;88.80
24158;DHT22;12316;50.904;4.200;2023-06-05T13:19:22;24.80;90.30
24158;DHT22;12316;50.904;4.200;2023-06-05T13:21:49;24.60;90.40
24158;DHT22;12316;50.904;4.200;2023-06-05T13:24:15;24.30;90.70
24158;DHT22;12316;50.904;4.200;2023-06-05T13:26:41;24.40;91.70
24158;DHT22;12316;50.904;4.200;2023-06-05T13:29:09;24.50;90.90
24158;DHT22;12316;50.904;4.200;2023-06-05T13:31:35;24.40;88.60
24158;DHT22;12316;50.904;4.200;2023-06-05T13:34:01;24.60;87.30
24158;DHT22;12316;50.904;4.200;2023-06-05T13:36:27;24.60;88.60
24158;DHT22;12316;50.904;4.200;2023-06-05T13:38:53;24.80;89.10
24158;DHT22;12316;50.904;4.200;2023-06-05T13:41:19;24.80;88.30
24158;DHT22;12316;50.904;4.200;2023-06-05T13:43:44;24.60;87.40
24158;DHT22;12316;50.904;4.200;2023-06-05T13:46:10;24.60;87.00
24158;DHT22;12316;50.904;4.200;2023-06-05T13:48:36;24.80;89.50
24158;DHT22;12316;50.904;4.200;2023-06-05T13:51:03;25.00;89.20
24158;DHT22;12316;50.904;4.200;2023-06-05T13:53:29;25.20;89.40
24158;DHT22;12316;50.904;4.200;2023-06-05T13:56:03;25.20;87.80
24158;DHT22;12316;50.904;4.200;2023-06-05T13:58:29;25.20;86.40
24158;DHT22;12316;50.904;4.200;2023-06-05T14:00:55;25.30;85.70
24158;DHT22;12316;50.904;4.200;2023-06-05T14:03:21;25.30;86.30
24158;DHT22;12316;50.904;4.200;2023-06-05T14:05:47;25.30;85.60
24158;DHT22;12316;50.904;4.200;2023-06-05T14:08:12;25.20;87.10
24158;DHT22;12316;50.904;4.200;2023-06-05T14:10:38;25.10;87.10
24158;DHT22;12316;50.904;4.200;2023-06-05T14:13:04;25.00;88.00
24158;DHT22;12316;50.904;4.200;2023-06-05T14:15:32;24.90;87.70
24158;DHT22;12316;50.904;4.200;2023-06-05T14:18:02;24.80;87.70
24158;DHT22;12316;50.904;4.200;2023-06-05T14:20:29;24.90;87.00
24158;DHT22;12316;50.904;4.200;2023-06-05T14:22:56;24.90;84.00
24158;DHT22;12316;50.904;4.200;2023-06-05T14:25:22;24.80;86.80
24158;DHT22;12316;50.904;4.200;2023-06-05T14:27:49;25.00;87.00
24158;DHT22;12316;50.904;4.200;2023-06-05T14:30:15;25.20;87.30
24158;DHT22;12316;50.904;4.200;2023-06-05T14:32:40;25.30;84.90
24158;DHT22;12316;50.904;4.200;2023-06-05T14:35:07;25.30;82.80
24158;DHT22;12316;50.904;4.200;2023-06-05T14:37:33;25.30;82.10
24158;DHT22;12316;50.904;4.200;2023-06-05T14:39:58;25.20;83.50
24158;DHT22;12316;50.904;4.200;2023-06-05T14:42:24;25.20;84.60
24158;DHT22;12316;50.904;4.200;2023-06-05T14:44:50;25.30;84.60
24158;DHT22;12316;50.904;4.200;2023-06-05T14:47:15;25.20;84.70
24158;DHT22;12316;50.904;4.200;2023-06-05T14:49:41;25.20;86.20
24158;DHT22;12316;50.904;4.200;2023-06-05T14:52:06;25.00;82.80
24158;DHT22;12316;50.904;4.200;2023-06-05T14:54:33;24.80;82.70
24158;DHT22;12316;50.904;4.200;2023-06-05T14:56:59;24.90;81.60
24158;DHT22;12316;50.904;4.200;2023-06-05T14:59:24;24.90;83.30
24158;DHT22;12316;50.904;4.200;2023-06-05T15:01:50;25.00;83.80
24158;DHT22;12316;50.904;4.200;2023-06-05T15:04:15;25.00;82.80
24158;DHT22;12316;50.904;4.200;2023-06-05T15:06:41;24.90;83.60
24158;DHT22;12316;50.904;4.200;2023-06-05T15:09:07;25.10;83.90
24158;DHT22;12316;50.904;4.200;2023-06-05T15:11:32;25.20;83.40
24158;DHT22;12316;50.904;4.200;2023-06-05T15:13:58;25.40;83.90
24158;DHT22;12316;50.904;4.200;2023-06-05T15:16:23;25.50;84.30
24158;DHT22;12316;50.904;4.200;2023-06-05T15:18:50;25.70;84.20
24158;DHT22;12316;50.904;4.200;2023-06-05T15:21:16;25.80;81.40
24158;DHT22;12316;50.904;4.200;2023-06-05T15:23:41;25.80;81.40
24158;DHT22;12316;50.904;4.200;2023-06-05T15:26:07;25.80;80.50
24158;DHT22;12316;50.904;4.200;2023-06-05T15:28:33;25.60;81.10
24158;DHT22;12316;50.904;4.200;2023-06-05T15:30:58;25.50;82.60
24158;DHT22;12316;50.904;4.200;2023-06-05T15:33:24;25.40;82.50
24158;DHT22;12316;50.904;4.200;2023-06-05T15:35:49;25.40;84.30
24158;DHT22;12316;50.904;4.200;2023-06-05T15:38:15;25.50;84.30
24158;DHT22;12316;50.904;4.200;2023-06-05T15:40:41;25.40;82.10
24158;DHT22;12316;50.904;4.200;2023-06-05T15:43:08;25.30;82.30
24158;DHT22;12316;50.904;4.200;2023-06-05T15:45:37;25.50;83.30
24158;DHT22;12316;50.904;4.200;2023-06-05T15:48:03;25.40;82.90
24158;DHT22;12316;50.904;4.200;2023-06-05T15:50:29;25.30;82.60
24158;DHT22;12316;50.904;4.200;2023-06-05T15:52:55;25.10;83.30
24158;DHT22;12316;50.904;4.200;2023-06-05T15:55:21;25.00;85.10
24158;DHT22;12316;50.904;4.200;2023-06-05T15:57:47;24.80;86.60
24158;DHT22;12316;50.904;4.200;2023-06-05T16:00:14;24.80;87.90
24158;DHT22;12316;50.904;4.200;2023-06-05T16:02:40;24.80;88.10
24158;DHT22;12316;50.904;4.200;2023-06-05T16:05:06;24.70;87.90
24158;DHT22;12316;50.904;4.200;2023-06-05T16:07:32;24.80;87.60
24158;DHT22;12316;50.904;4.200;2023-06-05T16:09:58;24.80;90.00
24158;DHT22;12316;50.904;4.200;2023-06-05T16:12:23;24.60;91.90